sensor_id;sensor_type;location;lat;lon;timestamp;P1;durP1;ratioP1;P2;durP2;ratioP2
66626;SDS011;53498;50.422;14.912;2023-02-25T00:00:41;3.45;;;2.40;;
66626;SDS011;53498;50.422;14.912;2023-02-25T00:03:13;3.33;;;2.20;;
66626;SDS011;53498;50.422;14.912;2023-02-25T00:05:40;4.72;;;2.05;;
66626;SDS011;53498;50.422;14.912;2023-02-25T00:08:06;4.10;;;2.30;;
66626;SDS011;53498;50.422;14.912;2023-02-25T00:10:33;3.85;;;2.10;;
66626;SDS011;53498;50.422;14.912;2023-02-25T00:12:59;3.97;;;2.50;;
66626;SDS011;53498;50.422;14.912;2023-02-25T00:15:24;4.13;;;2.50;;
66626;SDS011;53498;50.422;14.912;2023-02-25T00:17:50;4.72;;;3.22;;
66626;SDS011;53498;50.422;14.912;2023-02-25T00:20:16;2.70;;;2.20;;
66626;SDS011;53498;50.422;14.912;2023-02-25T00:22:44;5.30;;;2.97;;
66626;SDS011;53498;50.422;14.912;2023-02-25T00:25:10;4.40;;;2.85;;
66626;SDS011;53498;50.422;14.912;2023-02-25T00:27:36;7.78;;;2.55;;
66626;SDS011;53498;50.422;14.912;2023-02-25T00:30:02;7.25;;;3.70;;
66626;SDS011;53498;50.422;14.912;2023-02-25T00:32:29;4.25;;;2.92;;
66626;SDS011;53498;50.422;14.912;2023-02-25T00:34:54;5.18;;;3.00;;
66626;SDS011;53498;50.422;14.912;2023-02-25T00:37:21;3.97;;;2.47;;
66626;SDS011;53498;50.422;14.912;2023-02-25T00:39:47;4.90;;;3.28;;
66626;SDS011;53498;50.422;14.912;2023-02-25T00:42:16;5.30;;;2.47;;
66626;SDS011;53498;50.422;14.912;2023-02-25T00:44:44;4.05;;;2.60;;
66626;SDS011;53498;50.422;14.912;2023-02-25T00:47:14;6.97;;;2.97;;
66626;SDS011;53498;50.422;14.912;2023-02-25T00:49:42;7.60;;;2.75;;
66626;SDS011;53498;50.422;14.912;2023-02-25T00:52:10;6.10;;;3.00;;
66626;SDS011;53498;50.422;14.912;2023-02-25T00:54:36;4.72;;;2.85;;
66626;SDS011;53498;50.422;14.912;2023-02-25T00:57:03;5.45;;;2.80;;
66626;SDS011;53498;50.422;14.912;2023-02-25T00:59:29;5.05;;;2.88;;
66626;SDS011;53498;50.422;14.912;2023-02-25T01:01:55;4.82;;;3.20;;
66626;SDS011;53498;50.422;14.912;2023-02-25T01:04:21;5.13;;;2.83;;
66626;SDS011;53498;50.422;14.912;2023-02-25T01:06:46;6.57;;;2.85;;
66626;SDS011;53498;50.422;14.912;2023-02-25T01:09:12;5.25;;;3.03;;
66626;SDS011;53498;50.422;14.912;2023-02-25T01:11:39;5.22;;;2.65;;
66626;SDS011;53498;50.422;14.912;2023-02-25T01:14:10;6.60;;;3.90;;
66626;SDS011;53498;50.422;14.912;2023-02-25T01:16:38;5.10;;;3.35;;
66626;SDS011;53498;50.422;14.912;2023-02-25T01:19:05;5.25;;;3.63;;
66626;SDS011;53498;50.422;14.912;2023-02-25T01:21:34;7.20;;;3.03;;
66626;SDS011;53498;50.422;14.912;2023-02-25T01:24:03;5.90;;;3.65;;
66626;SDS011;53498;50.422;14.912;2023-02-25T01:26:31;5.90;;;2.88;;
66626;SDS011;53498;50.422;14.912;2023-02-25T01:28:59;6.10;;;3.58;;
66626;SDS011;53498;50.422;14.912;2023-02-25T01:31:24;5.22;;;2.90;;
66626;SDS011;53498;50.422;14.912;2023-02-25T01:33:54;4.85;;;2.78;;
66626;SDS011;53498;50.422;14.912;2023-02-25T01:36:21;3.60;;;2.67;;
66626;SDS011;53498;50.422;14.912;2023-02-25T01:38:47;5.30;;;2.50;;
66626;SDS011;53498;50.422;14.912;2023-02-25T01:41:13;5.72;;;3.08;;
66626;SDS011;53498;50.422;14.912;2023-02-25T01:43:39;4.63;;;2.60;;
66626;SDS011;53498;50.422;14.912;2023-02-25T01:46:05;5.22;;;2.63;;
66626;SDS011;53498;50.422;14.912;2023-02-25T01:48:31;5.15;;;2.63;;
66626;SDS011;53498;50.422;14.912;2023-02-25T01:51:01;3.13;;;2.00;;
66626;SDS011;53498;50.422;14.912;2023-02-25T01:53:36;3.20;;;2.50;;
66626;SDS011;53498;50.422;14.912;2023-02-25T01:56:08;4.45;;;2.38;;
66626;SDS011;53498;50.422;14.912;2023-02-25T01:58:36;3.78;;;2.70;;
66626;SDS011;53498;50.422;14.912;2023-02-25T02:01:03;5.45;;;2.90;;
66626;SDS011;53498;50.422;14.912;2023-02-25T02:03:34;4.82;;;2.20;;
66626;SDS011;53498;50.422;14.912;2023-02-25T02:06:08;6.60;;;2.67;;
66626;SDS011;53498;50.422;14.912;2023-02-25T02:08:43;3.67;;;2.30;;
66626;SDS011;53498;50.422;14.912;2023-02-25T02:11:09;5.40;;;2.75;;
66626;SDS011;53498;50.422;14.912;2023-02-25T02:13:36;6.75;;;2.83;;
66626;SDS011;53498;50.422;14.912;2023-02-25T02:19:23;4.70;;;2.83;;
66626;SDS011;53498;50.422;14.912;2023-02-25T02:22:16;6.47;;;2.75;;
66626;SDS011;53498;50.422;14.912;2023-02-25T02:30:45;3.83;;;2.30;;
66626;SDS011;53498;50.422;14.912;2023-02-25T02:38:48;5.25;;;3.40;;
66626;SDS011;53498;50.422;14.912;2023-02-25T02:46:36;4.00;;;2.55;;
66626;SDS011;53498;50.422;14.912;2023-02-25T02:49:08;7.13;;;2.70;;
66626;SDS011;53498;50.422;14.912;2023-02-25T02:52:23;3.92;;;2.65;;
66626;SDS011;53498;50.422;14.912;2023-02-25T02:54:39;6.55;;;2.80;;
66626;SDS011;53498;50.422;14.912;2023-02-25T02:57:11;4.28;;;2.63;;
66626;SDS011;53498;50.422;14.912;2023-02-25T02:59:43;4.13;;;2.65;;
66626;SDS011;53498;50.422;14.912;2023-02-25T03:02:22;4.63;;;3.05;;
66626;SDS011;53498;50.422;14.912;2023-02-25T03:04:54;4.07;;;2.45;;
66626;SDS011;53498;50.422;14.912;2023-02-25T03:07:25;4.68;;;2.47;;
66626;SDS011;53498;50.422;14.912;2023-02-25T03:09:52;6.65;;;2.22;;
66626;SDS011;53498;50.422;14.912;2023-02-25T03:12:21;4.05;;;2.58;;
66626;SDS011;53498;50.422;14.912;2023-02-25T03:14:46;4.30;;;2.03;;
66626;SDS011;53498;50.422;14.912;2023-02-25T03:19:41;3.13;;;1.70;;
66626;SDS011;53498;50.422;14.912;2023-02-25T03:22:10;4.60;;;2.38;;
66626;SDS011;53498;50.422;14.912;2023-02-25T03:24:58;5.38;;;2.22;;
66626;SDS011;53498;50.422;14.912;2023-02-25T03:27:32;3.15;;;2.13;;
66626;SDS011;53498;50.422;14.912;2023-02-25T03:30:05;3.55;;;1.95;;
66626;SDS011;53498;50.422;14.912;2023-02-25T03:32:38;1.92;;;1.45;;
66626;SDS011;53498;50.422;14.912;2023-02-25T03:35:08;2.67;;;2.10;;
66626;SDS011;53498;50.422;14.912;2023-02-25T03:37:36;2.60;;;1.88;;
66626;SDS011;53498;50.422;14.912;2023-02-25T03:40:06;2.20;;;1.90;;
66626;SDS011;53498;50.422;14.912;2023-02-25T03:42:47;3.78;;;2.28;;
66626;SDS011;53498;50.422;14.912;2023-02-25T03:45:17;2.70;;;2.00;;
66626;SDS011;53498;50.422;14.912;2023-02-25T03:47:45;4.03;;;2.58;;
66626;SDS011;53498;50.422;14.912;2023-02-25T03:50:17;2.17;;;1.48;;
66626;SDS011;53498;50.422;14.912;2023-02-25T03:52:55;3.83;;;1.95;;
66626;SDS011;53498;50.422;14.912;2023-02-25T03:55:20;2.38;;;1.50;;
66626;SDS011;53498;50.422;14.912;2023-02-25T03:57:48;4.30;;;1.80;;
66626;SDS011;53498;50.422;14.912;2023-02-25T04:00:16;3.97;;;1.65;;
66626;SDS011;53498;50.422;14.912;2023-02-25T04:02:47;3.28;;;2.10;;
66626;SDS011;53498;50.422;14.912;2023-02-25T04:05:14;2.20;;;1.45;;
66626;SDS011;53498;50.422;14.912;2023-02-25T04:07:41;2.17;;;1.70;;
66626;SDS011;53498;50.422;14.912;2023-02-25T04:10:07;3.42;;;1.90;;
66626;SDS011;53498;50.422;14.912;2023-02-25T04:12:34;4.85;;;1.90;;
66626;SDS011;53498;50.422;14.912;2023-02-25T04:14:59;3.72;;;1.73;;
66626;SDS011;53498;50.422;14.912;2023-02-25T04:17:25;2.70;;;1.65;;
66626;SDS011;53498;50.422;14.912;2023-02-25T04:19:51;2.35;;;1.50;;
66626;SDS011;53498;50.422;14.912;2023-02-25T04:22:17;3.63;;;1.48;;
66626;SDS011;53498;50.422;14.912;2023-02-25T04:24:42;2.88;;;1.55;;
66626;SDS011;53498;50.422;14.912;2023-02-25T04:27:08;2.35;;;1.83;;
66626;SDS011;53498;50.422;14.912;2023-02-25T04:29:33;5.97;;;1.38;;
66626;SDS011;53498;50.422;14.912;2023-02-25T04:31:59;3.35;;;1.70;;
66626;SDS011;53498;50.422;14.912;2023-02-25T04:34:24;2.22;;;1.55;;
66626;SDS011;53498;50.422;14.912;2023-02-25T04:36:50;2.03;;;1.10;;
66626;SDS011;53498;50.422;14.912;2023-02-25T04:39:16;2.92;;;2.17;;
66626;SDS011;53498;50.422;14.912;2023-02-25T04:41:43;2.55;;;1.55;;
66626;SDS011;53498;50.422;14.912;2023-02-25T04:44:09;4.32;;;1.50;;
66626;SDS011;53498;50.422;14.912;2023-02-25T04:46:36;7.97;;;1.75;;
66626;SDS011;53498;50.422;14.912;2023-02-25T04:49:04;3.75;;;1.40;;
66626;SDS011;53498;50.422;14.912;2023-02-25T04:51:30;4.20;;;2.00;;
66626;SDS011;53498;50.422;14.912;2023-02-25T04:53:56;3.38;;;2.00;;
66626;SDS011;53498;50.422;14.912;2023-02-25T04:56:21;7.05;;;1.65;;
66626;SDS011;53498;50.422;14.912;2023-02-25T04:58:47;2.28;;;1.10;;
66626;SDS011;53498;50.422;14.912;2023-02-25T05:01:13;3.83;;;1.98;;
66626;SDS011;53498;50.422;14.912;2023-02-25T05:03:38;2.60;;;1.30;;
66626;SDS011;53498;50.422;14.912;2023-02-25T05:06:05;3.60;;;1.13;;
66626;SDS011;53498;50.422;14.912;2023-02-25T05:08:31;6.68;;;1.73;;
66626;SDS011;53498;50.422;14.912;2023-02-25T05:10:57;3.13;;;1.30;;
66626;SDS011;53498;50.422;14.912;2023-02-25T05:13:30;3.72;;;1.38;;
66626;SDS011;53498;50.422;14.912;2023-02-25T05:16:06;2.58;;;1.00;;
66626;SDS011;53498;50.422;14.912;2023-02-25T05:18:39;3.28;;;1.38;;
66626;SDS011;53498;50.422;14.912;2023-02-25T05:21:07;1.67;;;1.10;;
66626;SDS011;53498;50.422;14.912;2023-02-25T05:23:36;4.15;;;1.45;;
66626;SDS011;53498;50.422;14.912;2023-02-25T05:26:03;1.45;;;1.00;;
66626;SDS011;53498;50.422;14.912;2023-02-25T05:28:29;5.35;;;1.35;;
66626;SDS011;53498;50.422;14.912;2023-02-25T05:30:55;6.18;;;1.17;;
66626;SDS011;53498;50.422;14.912;2023-02-25T05:33:21;2.20;;;1.17;;
66626;SDS011;53498;50.422;14.912;2023-02-25T05:35:47;2.03;;;1.00;;
66626;SDS011;53498;50.422;14.912;2023-02-25T05:38:13;1.80;;;0.90;;
66626;SDS011;53498;50.422;14.912;2023-02-25T05:40:39;3.88;;;0.82;;
66626;SDS011;53498;50.422;14.912;2023-02-25T05:43:04;4.00;;;0.98;;
66626;SDS011;53498;50.422;14.912;2023-02-25T05:45:30;3.58;;;1.00;;
66626;SDS011;53498;50.422;14.912;2023-02-25T05:47:56;2.42;;;1.02;;
66626;SDS011;53498;50.422;14.912;2023-02-25T05:50:22;2.38;;;1.20;;
66626;SDS011;53498;50.422;14.912;2023-02-25T05:52:48;5.70;;;1.50;;
66626;SDS011;53498;50.422;14.912;2023-02-25T05:55:13;3.85;;;0.77;;
66626;SDS011;53498;50.422;14.912;2023-02-25T05:57:40;1.90;;;1.02;;
66626;SDS011;53498;50.422;14.912;2023-02-25T06:00:06;1.27;;;0.75;;
66626;SDS011;53498;50.422;14.912;2023-02-25T06:02:39;2.58;;;1.05;;
66626;SDS011;53498;50.422;14.912;2023-02-25T06:05:06;3.92;;;1.05;;
66626;SDS011;53498;50.422;14.912;2023-02-25T06:07:32;1.63;;;1.05;;
66626;SDS011;53498;50.422;14.912;2023-02-25T06:09:59;2.03;;;0.68;;
66626;SDS011;53498;50.422;14.912;2023-02-25T06:12:30;3.03;;;0.80;;
66626;SDS011;53498;50.422;14.912;2023-02-25T06:14:57;1.58;;;0.77;;
66626;SDS011;53498;50.422;14.912;2023-02-25T06:17:23;1.90;;;1.05;;
66626;SDS011;53498;50.422;14.912;2023-02-25T06:19:50;2.20;;;0.73;;
66626;SDS011;53498;50.422;14.912;2023-02-25T06:22:19;2.05;;;0.82;;
66626;SDS011;53498;50.422;14.912;2023-02-25T06:24:45;2.83;;;0.77;;
66626;SDS011;53498;50.422;14.912;2023-02-25T06:27:11;1.50;;;0.80;;
66626;SDS011;53498;50.422;14.912;2023-02-25T06:29:38;1.20;;;0.73;;
66626;SDS011;53498;50.422;14.912;2023-02-25T06:32:10;4.68;;;1.13;;
66626;SDS011;53498;50.422;14.912;2023-02-25T06:34:36;0.90;;;0.90;;
66626;SDS011;53498;50.422;14.912;2023-02-25T06:37:02;1.13;;;0.75;;
66626;SDS011;53498;50.422;14.912;2023-02-25T06:39:28;1.80;;;0.80;;
66626;SDS011;53498;50.422;14.912;2023-02-25T06:41:54;2.33;;;0.85;;
66626;SDS011;53498;50.422;14.912;2023-02-25T06:44:19;4.32;;;1.10;;
66626;SDS011;53498;50.422;14.912;2023-02-25T06:46:45;2.47;;;0.80;;
66626;SDS011;53498;50.422;14.912;2023-02-25T06:49:10;2.92;;;0.80;;
66626;SDS011;53498;50.422;14.912;2023-02-25T06:51:36;3.35;;;1.58;;
66626;SDS011;53498;50.422;14.912;2023-02-25T06:54:02;3.15;;;1.40;;
66626;SDS011;53498;50.422;14.912;2023-02-25T06:56:28;1.05;;;0.80;;
66626;SDS011;53498;50.422;14.912;2023-02-25T06:58:55;4.85;;;1.48;;
66626;SDS011;53498;50.422;14.912;2023-02-25T07:01:23;4.13;;;1.58;;
66626;SDS011;53498;50.422;14.912;2023-02-25T07:03:50;5.93;;;1.30;;
66626;SDS011;53498;50.422;14.912;2023-02-25T07:06:16;3.53;;;1.02;;
66626;SDS011;53498;50.422;14.912;2023-02-25T07:08:43;3.97;;;1.50;;
66626;SDS011;53498;50.422;14.912;2023-02-25T07:13:46;2.53;;;1.17;;
66626;SDS011;53498;50.422;14.912;2023-02-25T07:16:12;4.22;;;1.38;;
66626;SDS011;53498;50.422;14.912;2023-02-25T07:18:40;4.40;;;1.40;;
66626;SDS011;53498;50.422;14.912;2023-02-25T07:21:06;2.70;;;1.33;;
66626;SDS011;53498;50.422;14.912;2023-02-25T07:23:32;1.85;;;1.30;;
66626;SDS011;53498;50.422;14.912;2023-02-25T07:26:01;3.10;;;1.23;;
66626;SDS011;53498;50.422;14.912;2023-02-25T07:28:28;2.63;;;1.10;;
66626;SDS011;53498;50.422;14.912;2023-02-25T07:30:54;4.38;;;0.95;;
66626;SDS011;53498;50.422;14.912;2023-02-25T07:33:20;2.78;;;1.00;;
66626;SDS011;53498;50.422;14.912;2023-02-25T07:35:45;1.38;;;0.93;;
66626;SDS011;53498;50.422;14.912;2023-02-25T07:38:11;1.10;;;0.80;;
66626;SDS011;53498;50.422;14.912;2023-02-25T07:40:37;2.33;;;1.05;;
66626;SDS011;53498;50.422;14.912;2023-02-25T07:43:05;1.25;;;0.77;;
66626;SDS011;53498;50.422;14.912;2023-02-25T07:45:31;2.05;;;0.73;;
66626;SDS011;53498;50.422;14.912;2023-02-25T07:47:57;1.70;;;0.70;;
66626;SDS011;53498;50.422;14.912;2023-02-25T07:50:22;1.70;;;0.90;;
66626;SDS011;53498;50.422;14.912;2023-02-25T07:52:48;1.13;;;0.80;;
66626;SDS011;53498;50.422;14.912;2023-02-25T07:55:14;1.00;;;0.85;;
66626;SDS011;53498;50.422;14.912;2023-02-25T07:57:40;2.33;;;0.98;;
66626;SDS011;53498;50.422;14.912;2023-02-25T08:00:05;1.10;;;0.75;;
66626;SDS011;53498;50.422;14.912;2023-02-25T08:02:38;0.95;;;0.70;;
66626;SDS011;53498;50.422;14.912;2023-02-25T08:05:04;1.08;;;0.90;;
66626;SDS011;53498;50.422;14.912;2023-02-25T08:07:31;1.23;;;1.00;;
66626;SDS011;53498;50.422;14.912;2023-02-25T08:09:57;1.00;;;0.77;;
66626;SDS011;53498;50.422;14.912;2023-02-25T08:12:22;1.33;;;0.60;;
66626;SDS011;53498;50.422;14.912;2023-02-25T08:14:48;0.75;;;0.75;;
66626;SDS011;53498;50.422;14.912;2023-02-25T08:17:13;0.93;;;0.73;;
66626;SDS011;53498;50.422;14.912;2023-02-25T08:19:39;0.60;;;0.60;;
66626;SDS011;53498;50.422;14.912;2023-02-25T08:22:06;0.50;;;0.50;;
66626;SDS011;53498;50.422;14.912;2023-02-25T08:24:40;0.82;;;0.50;;
66626;SDS011;53498;50.422;14.912;2023-02-25T08:27:06;0.80;;;0.57;;
66626;SDS011;53498;50.422;14.912;2023-02-25T08:29:35;3.00;;;0.70;;
66626;SDS011;53498;50.422;14.912;2023-02-25T08:32:02;0.75;;;0.57;;
66626;SDS011;53498;50.422;14.912;2023-02-25T08:34:30;1.85;;;0.60;;
66626;SDS011;53498;50.422;14.912;2023-02-25T08:36:56;0.68;;;0.60;;
66626;SDS011;53498;50.422;14.912;2023-02-25T08:39:23;0.50;;;0.50;;
66626;SDS011;53498;50.422;14.912;2023-02-25T08:41:49;1.05;;;0.45;;
66626;SDS011;53498;50.422;14.912;2023-02-25T08:44:15;0.60;;;0.60;;
66626;SDS011;53498;50.422;14.912;2023-02-25T08:46:43;0.98;;;0.80;;
66626;SDS011;53498;50.422;14.912;2023-02-25T08:49:08;0.52;;;0.52;;
66626;SDS011;53498;50.422;14.912;2023-02-25T08:51:34;0.40;;;0.40;;
66626;SDS011;53498;50.422;14.912;2023-02-25T08:54:03;0.50;;;0.43;;
66626;SDS011;53498;50.422;14.912;2023-02-25T08:56:32;0.60;;;0.50;;
66626;SDS011;53498;50.422;14.912;2023-02-25T08:58:59;1.20;;;0.73;;
66626;SDS011;53498;50.422;14.912;2023-02-25T09:01:25;0.68;;;0.68;;
66626;SDS011;53498;50.422;14.912;2023-02-25T09:04:05;0.50;;;0.45;;
66626;SDS011;53498;50.422;14.912;2023-02-25T09:06:30;1.15;;;0.80;;
66626;SDS011;53498;50.422;14.912;2023-02-25T09:08:58;1.08;;;0.70;;
66626;SDS011;53498;50.422;14.912;2023-02-25T09:11:24;1.58;;;0.73;;
66626;SDS011;53498;50.422;14.912;2023-02-25T09:13:50;0.90;;;0.73;;
66626;SDS011;53498;50.422;14.912;2023-02-25T09:16:16;1.48;;;0.80;;
66626;SDS011;53498;50.422;14.912;2023-02-25T09:18:43;1.95;;;0.63;;
66626;SDS011;53498;50.422;14.912;2023-02-25T09:21:10;0.95;;;0.47;;
66626;SDS011;53498;50.422;14.912;2023-02-25T09:23:36;1.15;;;0.70;;
66626;SDS011;53498;50.422;14.912;2023-02-25T09:26:03;0.70;;;0.70;;
66626;SDS011;53498;50.422;14.912;2023-02-25T09:28:29;2.35;;;0.60;;
66626;SDS011;53498;50.422;14.912;2023-02-25T09:30:56;1.05;;;0.50;;
66626;SDS011;53498;50.422;14.912;2023-02-25T09:33:22;0.73;;;0.50;;
66626;SDS011;53498;50.422;14.912;2023-02-25T09:35:48;0.60;;;0.60;;
66626;SDS011;53498;50.422;14.912;2023-02-25T09:38:14;0.55;;;0.40;;
66626;SDS011;53498;50.422;14.912;2023-02-25T09:40:43;0.82;;;0.65;;
66626;SDS011;53498;50.422;14.912;2023-02-25T09:43:21;0.60;;;0.47;;
66626;SDS011;53498;50.422;14.912;2023-02-25T09:46:03;0.88;;;0.50;;
66626;SDS011;53498;50.422;14.912;2023-02-25T09:48:32;0.60;;;0.60;;
66626;SDS011;53498;50.422;14.912;2023-02-25T09:54:12;0.45;;;0.45;;
66626;SDS011;53498;50.422;14.912;2023-02-25T09:56:42;0.38;;;0.30;;
66626;SDS011;53498;50.422;14.912;2023-02-25T09:59:15;0.70;;;0.60;;
66626;SDS011;53498;50.422;14.912;2023-02-25T10:01:48;1.70;;;0.70;;
66626;SDS011;53498;50.422;14.912;2023-02-25T10:06:49;1.27;;;0.77;;
66626;SDS011;53498;50.422;14.912;2023-02-25T10:11:52;1.13;;;0.70;;
66626;SDS011;53498;50.422;14.912;2023-02-25T10:22:41;1.20;;;1.10;;
66626;SDS011;53498;50.422;14.912;2023-02-25T10:25:19;2.03;;;1.30;;
66626;SDS011;53498;50.422;14.912;2023-02-25T10:33:18;1.30;;;1.02;;
66626;SDS011;53498;50.422;14.912;2023-02-25T10:35:49;2.15;;;0.70;;
66626;SDS011;53498;50.422;14.912;2023-02-25T10:38:21;1.00;;;0.85;;
66626;SDS011;53498;50.422;14.912;2023-02-25T10:40:46;1.95;;;0.98;;
66626;SDS011;53498;50.422;14.912;2023-02-25T10:43:19;1.23;;;0.82;;
66626;SDS011;53498;50.422;14.912;2023-02-25T10:45:48;2.05;;;0.80;;
66626;SDS011;53498;50.422;14.912;2023-02-25T10:48:22;0.60;;;0.52;;
66626;SDS011;53498;50.422;14.912;2023-02-25T10:51:08;0.60;;;0.60;;
66626;SDS011;53498;50.422;14.912;2023-02-25T10:53:37;0.50;;;0.50;;
66626;SDS011;53498;50.422;14.912;2023-02-25T10:56:03;1.20;;;0.80;;
66626;SDS011;53498;50.422;14.912;2023-02-25T10:58:31;1.70;;;1.05;;
66626;SDS011;53498;50.422;14.912;2023-02-25T11:01:05;0.85;;;0.57;;
66626;SDS011;53498;50.422;14.912;2023-02-25T11:04:00;1.25;;;1.02;;
66626;SDS011;53498;50.422;14.912;2023-02-25T11:06:27;2.67;;;0.80;;
66626;SDS011;53498;50.422;14.912;2023-02-25T11:09:01;1.83;;;0.98;;
66626;SDS011;53498;50.422;14.912;2023-02-25T11:12:30;2.70;;;1.50;;
66626;SDS011;53498;50.422;14.912;2023-02-25T11:14:44;3.45;;;2.53;;
66626;SDS011;53498;50.422;14.912;2023-02-25T11:19:39;1.20;;;1.05;;
66626;SDS011;53498;50.422;14.912;2023-02-25T11:22:10;0.75;;;0.57;;
66626;SDS011;53498;50.422;14.912;2023-02-25T11:24:40;1.63;;;0.77;;
66626;SDS011;53498;50.422;14.912;2023-02-25T11:27:07;0.85;;;0.80;;
66626;SDS011;53498;50.422;14.912;2023-02-25T11:29:53;0.52;;;0.50;;
66626;SDS011;53498;50.422;14.912;2023-02-25T11:32:27;2.47;;;1.00;;
66626;SDS011;53498;50.422;14.912;2023-02-25T11:34:54;1.08;;;0.95;;
66626;SDS011;53498;50.422;14.912;2023-02-25T11:37:33;1.15;;;0.90;;
66626;SDS011;53498;50.422;14.912;2023-02-25T11:40:03;1.33;;;0.75;;
66626;SDS011;53498;50.422;14.912;2023-02-25T11:45:30;2.47;;;0.75;;
66626;SDS011;53498;50.422;14.912;2023-02-25T11:47:58;1.00;;;0.77;;
66626;SDS011;53498;50.422;14.912;2023-02-25T11:50:30;0.60;;;0.60;;
66626;SDS011;53498;50.422;14.912;2023-02-25T11:56:19;2.35;;;0.90;;
66626;SDS011;53498;50.422;14.912;2023-02-25T11:58:57;0.90;;;0.90;;
66626;SDS011;53498;50.422;14.912;2023-02-25T12:24:09;1.30;;;0.45;;
66626;SDS011;53498;50.422;14.912;2023-02-25T12:40:07;1.48;;;0.60;;
66626;SDS011;53498;50.422;14.912;2023-02-25T12:48:33;0.98;;;0.52;;
66626;SDS011;53498;50.422;14.912;2023-02-25T12:56:24;0.55;;;0.55;;
66626;SDS011;53498;50.422;14.912;2023-02-25T13:04:32;1.02;;;0.77;;
66626;SDS011;53498;50.422;14.912;2023-02-25T13:15:17;0.80;;;0.75;;
66626;SDS011;53498;50.422;14.912;2023-02-25T13:18:00;1.42;;;1.05;;
66626;SDS011;53498;50.422;14.912;2023-02-25T13:20:49;1.00;;;0.80;;
66626;SDS011;53498;50.422;14.912;2023-02-25T13:26:29;1.33;;;0.77;;
66626;SDS011;53498;50.422;14.912;2023-02-25T13:32:05;1.05;;;0.85;;
66626;SDS011;53498;50.422;14.912;2023-02-25T14:13:50;0.70;;;0.52;;
66626;SDS011;53498;50.422;14.912;2023-02-25T14:19:43;2.30;;;0.85;;
66626;SDS011;53498;50.422;14.912;2023-02-25T14:25:15;0.50;;;0.50;;
66626;SDS011;53498;50.422;14.912;2023-02-25T14:35:58;1.20;;;0.70;;
66626;SDS011;53498;50.422;14.912;2023-02-25T14:38:38;1.35;;;0.80;;
66626;SDS011;53498;50.422;14.912;2023-02-25T14:41:32;0.93;;;0.70;;
66626;SDS011;53498;50.422;14.912;2023-02-25T14:44:16;0.60;;;0.45;;
66626;SDS011;53498;50.422;14.912;2023-02-25T14:46:52;1.85;;;1.15;;
66626;SDS011;53498;50.422;14.912;2023-02-25T14:49:24;2.33;;;0.82;;
66626;SDS011;53498;50.422;14.912;2023-02-25T15:05:23;1.83;;;0.98;;
66626;SDS011;53498;50.422;14.912;2023-02-25T15:08:07;1.80;;;0.80;;
66626;SDS011;53498;50.422;14.912;2023-02-25T15:13:27;1.45;;;0.88;;
66626;SDS011;53498;50.422;14.912;2023-02-25T15:19:18;2.55;;;0.82;;
66626;SDS011;53498;50.422;14.912;2023-02-25T15:25:28;0.60;;;0.50;;
66626;SDS011;53498;50.422;14.912;2023-02-25T15:30:11;0.65;;;0.50;;
66626;SDS011;53498;50.422;14.912;2023-02-25T15:40:50;1.45;;;0.55;;
66626;SDS011;53498;50.422;14.912;2023-02-25T15:45:44;1.58;;;0.57;;
66626;SDS011;53498;50.422;14.912;2023-02-25T16:00:59;3.03;;;1.27;;
66626;SDS011;53498;50.422;14.912;2023-02-25T16:14:02;2.05;;;1.02;;
66626;SDS011;53498;50.422;14.912;2023-02-25T16:16:31;1.15;;;0.98;;
66626;SDS011;53498;50.422;14.912;2023-02-25T16:18:58;1.27;;;0.70;;
66626;SDS011;53498;50.422;14.912;2023-02-25T16:21:29;2.03;;;1.23;;
66626;SDS011;53498;50.422;14.912;2023-02-25T16:24:05;2.28;;;1.27;;
66626;SDS011;53498;50.422;14.912;2023-02-25T16:32:43;1.08;;;0.70;;
66626;SDS011;53498;50.422;14.912;2023-02-25T16:35:23;1.85;;;0.80;;
66626;SDS011;53498;50.422;14.912;2023-02-25T16:40:45;1.77;;;0.93;;
66626;SDS011;53498;50.422;14.912;2023-02-25T16:43:13;1.00;;;0.73;;
66626;SDS011;53498;50.422;14.912;2023-02-25T16:45:55;1.60;;;0.90;;
66626;SDS011;53498;50.422;14.912;2023-02-25T16:48:26;1.27;;;0.77;;
66626;SDS011;53498;50.422;14.912;2023-02-25T16:50:56;2.30;;;0.85;;
66626;SDS011;53498;50.422;14.912;2023-02-25T16:53:31;1.92;;;0.90;;
66626;SDS011;53498;50.422;14.912;2023-02-25T16:55:57;1.25;;;1.00;;
66626;SDS011;53498;50.422;14.912;2023-02-25T16:58:28;2.03;;;1.30;;
66626;SDS011;53498;50.422;14.912;2023-02-25T17:00:58;1.85;;;0.82;;
66626;SDS011;53498;50.422;14.912;2023-02-25T17:03:31;1.40;;;0.90;;
66626;SDS011;53498;50.422;14.912;2023-02-25T17:06:17;1.88;;;1.10;;
66626;SDS011;53498;50.422;14.912;2023-02-25T17:08:48;0.95;;;0.95;;
66626;SDS011;53498;50.422;14.912;2023-02-25T17:11:18;1.95;;;1.02;;
66626;SDS011;53498;50.422;14.912;2023-02-25T17:13:47;1.25;;;1.00;;
66626;SDS011;53498;50.422;14.912;2023-02-25T17:16:26;1.30;;;1.00;;
66626;SDS011;53498;50.422;14.912;2023-02-25T17:18:55;1.20;;;1.05;;
66626;SDS011;53498;50.422;14.912;2023-02-25T17:21:27;2.08;;;1.10;;
66626;SDS011;53498;50.422;14.912;2023-02-25T17:23:58;2.60;;;1.23;;
66626;SDS011;53498;50.422;14.912;2023-02-25T17:26:26;1.88;;;0.80;;
66626;SDS011;53498;50.422;14.912;2023-02-25T17:28:53;1.70;;;1.20;;
66626;SDS011;53498;50.422;14.912;2023-02-25T17:31:22;1.40;;;1.13;;
66626;SDS011;53498;50.422;14.912;2023-02-25T17:33:55;2.38;;;1.10;;
66626;SDS011;53498;50.422;14.912;2023-02-25T17:36:27;2.50;;;1.40;;
66626;SDS011;53498;50.422;14.912;2023-02-25T17:38:57;4.38;;;1.60;;
66626;SDS011;53498;50.422;14.912;2023-02-25T17:41:25;1.70;;;1.13;;
66626;SDS011;53498;50.422;14.912;2023-02-25T17:43:52;1.80;;;1.25;;
66626;SDS011;53498;50.422;14.912;2023-02-25T17:48:51;1.30;;;1.00;;
66626;SDS011;53498;50.422;14.912;2023-02-25T17:51:25;1.80;;;1.02;;
66626;SDS011;53498;50.422;14.912;2023-02-25T17:54:16;1.92;;;1.20;;
66626;SDS011;53498;50.422;14.912;2023-02-25T17:56:43;1.40;;;1.17;;
66626;SDS011;53498;50.422;14.912;2023-02-25T18:01:53;2.00;;;0.98;;
66626;SDS011;53498;50.422;14.912;2023-02-25T18:04:33;2.30;;;1.40;;
66626;SDS011;53498;50.422;14.912;2023-02-25T18:07:18;1.50;;;1.30;;
66626;SDS011;53498;50.422;14.912;2023-02-25T18:09:55;2.70;;;1.50;;
66626;SDS011;53498;50.422;14.912;2023-02-25T18:12:25;1.55;;;1.33;;
66626;SDS011;53498;50.422;14.912;2023-02-25T18:15:12;1.47;;;0.97;;
66626;SDS011;53498;50.422;14.912;2023-02-25T18:17:41;1.88;;;1.25;;
66626;SDS011;53498;50.422;14.912;2023-02-25T18:23:04;1.95;;;1.48;;
66626;SDS011;53498;50.422;14.912;2023-02-25T18:28:01;3.00;;;1.52;;
66626;SDS011;53498;50.422;14.912;2023-02-25T18:30:29;2.05;;;0.98;;
66626;SDS011;53498;50.422;14.912;2023-02-25T18:32:55;2.03;;;1.27;;
66626;SDS011;53498;50.422;14.912;2023-02-25T18:35:25;1.30;;;1.15;;
66626;SDS011;53498;50.422;14.912;2023-02-25T18:37:52;2.72;;;1.40;;
66626;SDS011;53498;50.422;14.912;2023-02-25T18:42:56;2.92;;;1.45;;
66626;SDS011;53498;50.422;14.912;2023-02-25T18:45:23;3.10;;;1.60;;
66626;SDS011;53498;50.422;14.912;2023-02-25T18:47:51;2.35;;;1.30;;
66626;SDS011;53498;50.422;14.912;2023-02-25T18:50:17;1.70;;;1.38;;
66626;SDS011;53498;50.422;14.912;2023-02-25T18:52:44;2.60;;;1.73;;
66626;SDS011;53498;50.422;14.912;2023-02-25T18:55:17;2.67;;;1.40;;
66626;SDS011;53498;50.422;14.912;2023-02-25T18:57:44;2.50;;;1.52;;
66626;SDS011;53498;50.422;14.912;2023-02-25T19:00:10;2.67;;;1.45;;
66626;SDS011;53498;50.422;14.912;2023-02-25T19:02:47;2.45;;;1.73;;
66626;SDS011;53498;50.422;14.912;2023-02-25T19:05:21;2.28;;;1.83;;